메인 페이지
METAR-TAF:

METAR-TAF

공항 :

본리키 국제공항

타라와, 키리바시

위도: 01-21N, 경도: 172-55E, 고도: 2m

현재 날씨관측

예보는 34분 전, 15:00시(UTC)에 발표되었습니다.
7kt
온도 28°C
습도 84%
기압 1007 hPa
시정 10km 이상
고도 1900ft 상공 구름 보통

METAR: NGTA 241500Z 08007KT 9999 SCT019 28/25 Q1007

시각: 05:34 (15:34 UTC)

예보

예보는 9 시간 46분 전, 05:48시(UTC)에 발표되었습니다.
예보 대상 시간: 24일 06시부터 25일 06시까지 (UTC)
8kt
시정 10km 이상
고도 2000ft 상공 구름 보통
고도 10000ft 상공 구름 보통

TAF: NGTA 240548Z 2406/2506 09008KT 9999 SCT020 SCT100

4,000개 이상의 공항 관측 자료 및 예보 (METAR 및 TAF 보고).

지도상에서 검색 가능한 기상관측소가 노란 점과 빨간 점으로 표시되어 있습니다.

기상관측소 명을 보려면 표시 위로 마우스를 이동하세요.

날씨 관측과 예보를 보려면 클릭하세요.

지도 변경 : 확대하려면 엑스 표시가 있는 녹색 버튼, 축소하려면 빼기 표시가 있는 녹색 버튼, 다음 페이지의 지도를 보려면 녹색 화살표를 클릭하세요.


METAR-TAF: